createdAt,value
2022-09-20T00:00:08.018Z,10.55
2022-09-20T00:01:14.032Z,10.54
2022-09-20T00:02:17.395Z,10.53
2022-09-20T00:03:21.892Z,10.52
2022-09-20T00:04:25.528Z,10.51
2022-09-20T00:05:30.359Z,10.50
2022-09-20T00:06:34.264Z,10.50
2022-09-20T00:07:38.625Z,10.48
2022-09-20T00:08:42.567Z,10.48
2022-09-20T00:09:48.482Z,10.47
2022-09-20T00:10:53.455Z,10.47
2022-09-20T00:11:59.347Z,10.48
2022-09-20T00:13:02.795Z,10.47
2022-09-20T00:14:09.019Z,10.46
2022-09-20T00:15:12.408Z,10.47
2022-09-20T00:16:19.313Z,10.47
2022-09-20T00:17:22.865Z,10.45
2022-09-20T00:18:27.396Z,10.47
2022-09-20T00:19:30.665Z,10.45
2022-09-20T00:20:35.613Z,10.45
2022-09-20T00:21:39.350Z,10.44
2022-09-20T00:22:44.036Z,10.46
2022-09-20T00:23:47.592Z,10.46
2022-09-20T00:24:53.571Z,10.46
2022-09-20T00:25:57.917Z,10.44
2022-09-20T00:27:02.266Z,10.44
2022-09-20T00:28:06.219Z,10.46
2022-09-20T00:29:10.457Z,10.45
2022-09-20T00:30:14.204Z,10.47
2022-09-20T00:31:18.491Z,10.46
2022-09-20T00:32:21.699Z,10.46
2022-09-20T00:33:46.780Z,10.45
2022-09-20T00:35:08.687Z,10.44
2022-09-20T00:36:18.215Z,10.44
2022-09-20T00:37:22.484Z,10.43
2022-09-20T00:38:25.580Z,10.44
2022-09-20T00:39:29.902Z,10.45
2022-09-20T00:40:34.781Z,10.45
2022-09-20T00:41:39.109Z,10.46
2022-09-20T00:42:42.480Z,10.46
2022-09-20T00:43:47.657Z,10.49
2022-09-20T00:44:56.622Z,10.51
2022-09-20T00:46:01.110Z,10.51
2022-09-20T00:47:04.984Z,10.51
2022-09-20T00:48:13.613Z,10.52
2022-09-20T00:49:19.245Z,10.52
2022-09-20T00:50:33.427Z,10.54
2022-09-20T00:51:39.121Z,10.53
2022-09-20T00:52:46.037Z,10.53
2022-09-20T00:53:51.427Z,10.51
2022-09-20T00:54:56.448Z,10.51
2022-09-20T00:56:04.407Z,10.48
2022-09-20T00:57:08.918Z,10.48
2022-09-20T00:58:13.945Z,10.47
2022-09-20T00:59:19.456Z,10.46
2022-09-20T01:00:24.334Z,10.45
2022-09-20T01:01:28.060Z,10.45
2022-09-20T01:02:33.861Z,10.45
2022-09-20T01:03:39.567Z,10.45
2022-09-20T01:04:43.370Z,10.44
2022-09-20T01:05:48.294Z,10.44
2022-09-20T01:06:53.298Z,10.42
2022-09-20T01:07:58.465Z,10.41
2022-09-20T01:09:04.374Z,10.41
2022-09-20T01:10:09.131Z,10.40
2022-09-20T01:11:13.817Z,10.38
2022-09-20T01:12:20.494Z,10.38
2022-09-20T01:13:24.875Z,10.37
2022-09-20T01:14:28.143Z,10.37
2022-09-20T01:15:33.234Z,10.38
2022-09-20T01:16:37.325Z,10.37
2022-09-20T01:17:43.248Z,10.36
2022-09-20T01:18:47.118Z,10.37
2022-09-20T01:20:01.934Z,10.37
2022-09-20T01:21:07.403Z,10.36
2022-09-20T01:22:15.614Z,10.37
2022-09-20T01:23:31.414Z,10.37
2022-09-20T01:24:39.194Z,10.36
2022-09-20T01:26:16.319Z,10.38
2022-09-20T01:27:25.026Z,10.39
2022-09-20T01:28:30.294Z,10.38
2022-09-20T01:29:46.832Z,10.40
2022-09-20T01:30:58.076Z,10.40
2022-09-20T01:32:04.363Z,10.38
2022-09-20T01:33:11.206Z,10.38
2022-09-20T01:34:17.136Z,10.38
2022-09-20T01:35:21.727Z,10.39
2022-09-20T01:36:28.416Z,10.40
2022-09-20T01:37:38.461Z,10.40
2022-09-20T01:38:47.202Z,10.39
2022-09-20T01:39:55.908Z,10.39
2022-09-20T01:41:06.300Z,10.38
2022-09-20T01:42:11.756Z,10.37
2022-09-20T01:43:22.173Z,10.37
2022-09-20T01:44:32.726Z,10.35
2022-09-20T01:45:37.035Z,10.35
2022-09-20T01:46:43.676Z,10.34
2022-09-20T01:47:53.456Z,10.34
2022-09-20T01:49:06.241Z,10.35
2022-09-20T01:50:19.064Z,10.34
2022-09-20T01:52:01.759Z,10.35
2022-09-20T01:53:42.452Z,10.33
2022-09-20T01:55:24.697Z,10.33
2022-09-20T01:57:13.525Z,10.32
2022-09-20T01:59:23.230Z,10.31
2022-09-20T02:00:32.113Z,10.29
2022-09-20T02:02:12.199Z,10.31
2022-09-20T02:03:48.042Z,10.32
2022-09-20T02:05:29.468Z,10.31
2022-09-20T02:06:50.056Z,10.30
2022-09-20T02:08:11.475Z,10.31
2022-09-20T02:09:37.404Z,10.33
2022-09-20T02:11:05.706Z,10.32
2022-09-20T02:12:20.484Z,10.32
2022-09-20T02:13:31.328Z,10.33
2022-09-20T02:14:42.087Z,10.33
2022-09-20T02:16:15.524Z,10.33
2022-09-20T02:17:23.315Z,10.32
2022-09-20T02:18:39.914Z,10.32
2022-09-20T02:20:09.512Z,10.31
2022-09-20T02:21:20.026Z,10.29
2022-09-20T02:22:33.384Z,10.28
2022-09-20T02:23:44.465Z,10.28
2022-09-20T02:25:00.449Z,10.27
2022-09-20T02:26:19.865Z,10.29
2022-09-20T02:27:28.454Z,10.28
2022-09-20T02:28:44.948Z,10.30
2022-09-20T02:30:01.615Z,10.31
2022-09-20T02:31:12.179Z,10.30
2022-09-20T02:32:29.798Z,10.31
2022-09-20T02:33:59.944Z,10.32
2022-09-20T02:35:20.708Z,10.32
2022-09-20T02:36:35.596Z,10.31
2022-09-20T02:37:56.363Z,10.29
2022-09-20T02:39:04.960Z,10.27
2022-09-20T02:40:20.413Z,10.26
2022-09-20T02:41:48.753Z,10.26
2022-09-20T02:42:58.339Z,10.27
2022-09-20T02:44:10.696Z,10.28
2022-09-20T02:45:54.421Z,10.30
2022-09-20T02:47:43.706Z,10.31
2022-09-20T02:48:55.045Z,10.27
2022-09-20T02:50:08.227Z,10.29
2022-09-20T02:51:18.520Z,10.28
2022-09-20T02:52:30.021Z,10.28
2022-09-20T02:53:41.485Z,10.27
2022-09-20T02:54:54.864Z,10.28
2022-09-20T02:56:05.479Z,10.27
2022-09-20T02:57:17.455Z,10.28
2022-09-20T02:58:31.507Z,10.27
2022-09-20T02:59:42.055Z,10.27
2022-09-20T03:00:50.136Z,10.27
2022-09-20T03:02:08.355Z,10.27
2022-09-20T03:03:16.708Z,10.28
2022-09-20T03:04:30.749Z,10.29
2022-09-20T03:05:47.784Z,10.30
2022-09-20T03:06:57.267Z,10.30
2022-09-20T03:08:15.795Z,10.32
2022-09-20T03:09:27.893Z,10.32
2022-09-20T03:10:36.841Z,10.33
2022-09-20T03:11:45.712Z,10.36
2022-09-20T03:13:01.735Z,10.37
2022-09-20T03:14:15.162Z,10.38
2022-09-20T03:15:27.167Z,10.38
2022-09-20T03:16:37.705Z,10.39
2022-09-20T03:17:49.054Z,10.41
2022-09-20T03:19:00.389Z,10.42
2022-09-20T03:20:17.241Z,10.43
2022-09-20T03:21:30.225Z,10.41
2022-09-20T03:22:43.218Z,10.39
2022-09-20T03:23:55.341Z,10.39
2022-09-20T03:25:16.077Z,10.38
2022-09-20T03:26:32.255Z,10.37
2022-09-20T03:27:43.058Z,10.38
2022-09-20T03:29:06.352Z,10.39
2022-09-20T03:30:29.268Z,10.38
2022-09-20T03:31:47.120Z,10.37
2022-09-20T03:32:59.759Z,10.37
2022-09-20T03:34:15.477Z,10.36
2022-09-20T03:35:30.300Z,10.35
2022-09-20T03:36:48.786Z,10.32
2022-09-20T03:38:03.580Z,10.31
2022-09-20T03:39:47.276Z,10.28
2022-09-20T03:41:24.145Z,10.27
2022-09-20T03:42:30.239Z,10.23
2022-09-20T03:43:45.098Z,10.23
2022-09-20T03:45:26.522Z,10.21
2022-09-20T03:46:31.226Z,10.18
2022-09-20T03:47:50.626Z,10.18
2022-09-20T03:49:29.639Z,10.18
2022-09-20T03:50:45.873Z,10.16
2022-09-20T03:51:59.203Z,10.17
2022-09-20T03:53:25.557Z,10.18
2022-09-20T03:54:53.215Z,10.14
2022-09-20T03:56:30.153Z,10.13
2022-09-20T03:57:46.490Z,10.09
2022-09-20T03:59:01.255Z,10.11
2022-09-20T04:00:12.600Z,10.11
2022-09-20T04:01:36.575Z,10.13
2022-09-20T04:03:12.631Z,10.12
2022-09-20T04:04:23.616Z,10.12
2022-09-20T04:05:35.700Z,10.12
2022-09-20T04:06:51.274Z,10.12
2022-09-20T04:08:01.640Z,10.13
2022-09-20T04:09:30.414Z,10.14
2022-09-20T04:10:45.673Z,10.12
2022-09-20T04:11:55.705Z,10.13
2022-09-20T04:13:13.263Z,10.13
2022-09-20T04:14:21.286Z,10.14
2022-09-20T04:15:33.353Z,10.16
2022-09-20T04:16:43.308Z,10.17
2022-09-20T04:17:52.948Z,10.17
2022-09-20T04:18:59.559Z,10.20
2022-09-20T04:20:06.566Z,10.20
2022-09-20T04:21:15.852Z,10.19
2022-09-20T04:22:21.867Z,10.20
2022-09-20T04:23:38.111Z,10.22
2022-09-20T04:24:46.313Z,10.23
2022-09-20T04:25:51.741Z,10.25
2022-09-20T04:27:00.445Z,10.26
2022-09-20T04:28:06.653Z,10.27
2022-09-20T04:29:21.623Z,10.28
2022-09-20T04:30:30.445Z,10.27
2022-09-20T04:31:37.781Z,10.27
2022-09-20T04:32:44.554Z,10.27
2022-09-20T04:33:51.036Z,10.28
2022-09-20T04:35:18.853Z,10.29
2022-09-20T04:36:39.361Z,10.29
2022-09-20T04:37:44.516Z,10.28
2022-09-20T04:38:54.900Z,10.30
2022-09-20T04:40:04.802Z,10.30
2022-09-20T04:41:23.016Z,10.32
2022-09-20T04:43:20.380Z,10.32
2022-09-20T04:44:56.219Z,10.31
2022-09-20T04:46:29.079Z,10.30
2022-09-20T04:48:09.334Z,10.29
2022-09-20T04:49:32.679Z,10.29
2022-09-20T04:51:20.070Z,10.30
2022-09-20T04:53:02.545Z,10.30
2022-09-20T04:54:36.612Z,10.31
2022-09-20T04:55:53.107Z,10.30
2022-09-20T04:57:23.605Z,10.32
2022-09-20T04:58:42.421Z,10.31
2022-09-20T05:00:00.060Z,10.32
2022-09-20T05:01:42.745Z,10.31
2022-09-20T05:03:20.785Z,10.28
2022-09-20T05:05:02.060Z,10.28
2022-09-20T05:06:27.841Z,10.29
2022-09-20T05:08:14.523Z,10.28
2022-09-20T05:09:44.636Z,10.26
2022-09-20T05:11:13.762Z,10.26
2022-09-20T05:12:37.443Z,10.27
2022-09-20T05:13:53.124Z,10.28
2022-09-20T05:15:12.658Z,10.28
2022-09-20T05:16:22.610Z,10.28
2022-09-20T05:17:38.531Z,10.30
2022-09-20T05:19:07.652Z,10.31
2022-09-20T05:20:25.773Z,10.32
2022-09-20T05:22:00.223Z,10.33
2022-09-20T05:23:37.622Z,10.32
2022-09-20T05:25:08.009Z,10.30
2022-09-20T05:26:14.385Z,10.29
2022-09-20T05:27:29.401Z,10.31
2022-09-20T05:28:38.678Z,10.32
2022-09-20T05:29:51.153Z,10.34
2022-09-20T05:30:57.839Z,10.35
2022-09-20T05:32:06.473Z,10.37
2022-09-20T05:33:20.636Z,10.39
2022-09-20T05:34:35.213Z,10.40
2022-09-20T05:35:43.550Z,10.39
2022-09-20T05:36:56.491Z,10.41
2022-09-20T05:38:05.814Z,10.42
2022-09-20T05:39:23.028Z,10.42
2022-09-20T05:40:33.340Z,10.41
2022-09-20T05:41:43.017Z,10.43
2022-09-20T05:42:54.193Z,10.44
2022-09-20T05:44:06.059Z,10.46
2022-09-20T05:45:24.053Z,10.48
2022-09-20T05:46:35.768Z,10.48
2022-09-20T05:47:45.284Z,10.51
2022-09-20T05:48:57.737Z,10.53
2022-09-20T05:50:11.359Z,10.56
2022-09-20T05:51:24.171Z,10.61
2022-09-20T05:52:38.731Z,10.64
2022-09-20T05:54:14.284Z,10.68
2022-09-20T05:55:36.825Z,10.66
2022-09-20T05:56:50.198Z,10.68
2022-09-20T05:58:05.140Z,10.70
2022-09-20T05:59:26.083Z,10.74
2022-09-20T06:00:33.213Z,10.78
2022-09-20T06:01:41.974Z,10.80
2022-09-20T06:02:54.242Z,10.81
2022-09-20T06:04:08.411Z,10.82
2022-09-20T06:05:16.473Z,10.84
2022-09-20T06:06:23.859Z,10.87
2022-09-20T06:07:34.529Z,10.91
2022-09-20T06:09:05.426Z,10.94
2022-09-20T06:10:31.242Z,10.93
2022-09-20T06:11:56.601Z,10.93
2022-09-20T06:13:09.089Z,10.92
2022-09-20T06:14:22.234Z,10.90
2022-09-20T06:15:28.514Z,10.89
2022-09-20T06:16:43.605Z,10.88
2022-09-20T06:17:54.784Z,10.88
2022-09-20T06:19:06.402Z,10.92
2022-09-20T06:20:18.830Z,10.98
2022-09-20T06:21:31.491Z,11.00
2022-09-20T06:22:39.553Z,11.01
2022-09-20T06:23:44.132Z,10.99
2022-09-20T06:24:49.766Z,11.00
2022-09-20T06:25:57.514Z,11.00
2022-09-20T06:27:04.651Z,10.99
2022-09-20T06:28:14.912Z,10.98
2022-09-20T06:29:22.680Z,10.98
2022-09-20T06:30:30.666Z,11.00
2022-09-20T06:31:34.954Z,11.03
2022-09-20T06:32:53.762Z,11.04
2022-09-20T06:34:02.322Z,11.07
2022-09-20T06:35:06.207Z,11.09
2022-09-20T06:36:39.262Z,11.12
2022-09-20T06:38:03.488Z,11.16
2022-09-20T06:39:30.134Z,11.18
2022-09-20T06:40:58.018Z,11.22
2022-09-20T06:42:03.732Z,11.20
2022-09-20T06:43:06.954Z,11.18
2022-09-20T06:44:11.162Z,11.18
2022-09-20T06:45:15.432Z,11.18
2022-09-20T06:46:18.583Z,11.18
2022-09-20T06:47:23.565Z,11.18
2022-09-20T06:48:32.231Z,11.17
2022-09-20T06:49:36.748Z,11.17
2022-09-20T06:50:39.882Z,11.18
2022-09-20T06:51:44.113Z,11.17
2022-09-20T06:52:48.584Z,11.17
2022-09-20T06:53:52.819Z,11.15
2022-09-20T06:54:57.801Z,11.15
2022-09-20T06:56:01.742Z,11.16
2022-09-20T06:57:07.753Z,11.16
2022-09-20T06:58:11.260Z,11.17
2022-09-20T06:59:15.732Z,11.18
2022-09-20T07:00:19.826Z,11.21
2022-09-20T07:01:30.069Z,11.27
2022-09-20T07:02:34.871Z,11.30
2022-09-20T07:03:39.046Z,11.33
2022-09-20T07:04:43.879Z,11.36
2022-09-20T07:05:47.201Z,11.39
2022-09-20T07:06:51.350Z,11.42
2022-09-20T07:07:57.933Z,11.45
2022-09-20T07:09:02.239Z,11.47
2022-09-20T07:10:07.054Z,11.50
2022-09-20T07:11:15.214Z,11.50
2022-09-20T07:12:19.822Z,11.51
2022-09-20T07:13:24.316Z,11.54
2022-09-20T07:14:29.036Z,11.57
2022-09-20T07:15:33.521Z,11.61
2022-09-20T07:16:37.887Z,11.64
2022-09-20T07:17:40.863Z,11.69
2022-09-20T07:18:45.170Z,11.77
2022-09-20T07:19:49.318Z,11.86
2022-09-20T07:20:52.546Z,11.93
2022-09-20T07:21:57.042Z,12.02
2022-09-20T07:23:01.334Z,12.10
2022-09-20T07:24:04.770Z,12.20
2022-09-20T07:25:09.994Z,12.25
2022-09-20T07:26:18.516Z,12.31
2022-09-20T07:27:28.633Z,12.32
2022-09-20T07:28:33.873Z,12.38
2022-09-20T07:29:38.255Z,12.41
2022-09-20T07:30:43.207Z,12.45
2022-09-20T07:31:46.466Z,12.42
2022-09-20T07:32:50.668Z,12.42
2022-09-20T07:33:53.799Z,12.42
2022-09-20T07:34:58.002Z,12.42
2022-09-20T07:36:01.125Z,12.40
2022-09-20T07:37:05.809Z,12.42
2022-09-20T07:38:08.988Z,12.42
2022-09-20T07:39:13.172Z,12.41
2022-09-20T07:40:17.599Z,12.39
2022-09-20T07:41:23.187Z,12.39
2022-09-20T07:42:29.953Z,12.41
2022-09-20T07:43:34.333Z,12.41
2022-09-20T07:44:37.394Z,12.40
2022-09-20T07:45:42.075Z,12.38
2022-09-20T07:46:48.858Z,12.36
2022-09-20T07:47:53.812Z,12.37
2022-09-20T07:48:56.830Z,12.39
2022-09-20T07:50:01.142Z,12.45
2022-09-20T07:51:08.998Z,12.47
2022-09-20T07:52:14.919Z,12.50
2022-09-20T07:53:18.021Z,12.57
2022-09-20T07:54:22.252Z,12.60
2022-09-20T07:55:25.652Z,12.66
2022-09-20T07:56:29.863Z,12.68
2022-09-20T07:57:38.595Z,12.67
2022-09-20T07:58:43.382Z,12.66
2022-09-20T07:59:46.590Z,12.66
2022-09-20T08:00:55.110Z,12.66
2022-09-20T08:02:00.878Z,12.69
2022-09-20T08:03:06.260Z,12.74
2022-09-20T08:04:11.432Z,12.78
2022-09-20T08:05:14.399Z,12.78
2022-09-20T08:06:19.014Z,12.74
2022-09-20T08:07:23.282Z,12.71
2022-09-20T08:08:26.376Z,12.66
2022-09-20T08:09:30.679Z,12.63
2022-09-20T08:10:33.919Z,12.57
2022-09-20T08:11:39.771Z,12.46
2022-09-20T08:14:11.429Z,12.24
2022-09-20T08:15:34.237Z,12.14
2022-09-20T08:16:43.751Z,12.10
2022-09-20T08:17:49.835Z,12.08
2022-09-20T08:18:55.893Z,12.02
2022-09-20T08:20:01.028Z,11.96
2022-09-20T08:21:06.789Z,11.88
2022-09-20T08:22:12.831Z,11.86
2022-09-20T08:23:23.528Z,11.83
2022-09-20T08:24:28.493Z,11.82
2022-09-20T08:25:31.884Z,11.80
2022-09-20T08:26:36.753Z,11.82
2022-09-20T08:27:41.142Z,11.82
2022-09-20T08:28:46.471Z,11.84
2022-09-20T08:29:55.728Z,11.85
2022-09-20T08:31:03.113Z,11.85
2022-09-20T08:32:07.655Z,11.85
2022-09-20T08:33:11.834Z,11.87
2022-09-20T08:34:18.740Z,11.91
2022-09-20T08:35:25.793Z,11.97
2022-09-20T08:36:35.909Z,11.98
2022-09-20T08:37:41.432Z,12.00
2022-09-20T08:40:11.575Z,12.06
2022-09-20T08:41:18.571Z,12.04
2022-09-20T08:42:33.944Z,12.02
2022-09-20T08:43:45.638Z,11.98
2022-09-20T08:45:00.962Z,11.95
2022-09-20T08:46:07.229Z,11.96
2022-09-20T08:47:24.119Z,11.97
2022-09-20T08:48:33.654Z,11.98
2022-09-20T08:49:37.641Z,11.95
2022-09-20T08:51:07.024Z,11.93
2022-09-20T08:52:41.781Z,11.89
2022-09-20T08:53:53.805Z,11.88
2022-09-20T08:55:13.796Z,11.93
2022-09-20T08:57:58.321Z,12.14
2022-09-20T08:59:20.201Z,12.29
2022-09-20T09:00:27.603Z,12.40
2022-09-20T09:01:32.655Z,12.49
2022-09-20T09:02:41.895Z,12.59
2022-09-20T09:03:46.381Z,12.67
2022-09-20T09:04:51.780Z,12.73
2022-09-20T09:05:58.397Z,12.78
2022-09-20T09:07:02.919Z,12.78
2022-09-20T09:08:16.665Z,12.77
2022-09-20T09:09:23.590Z,12.80
2022-09-20T09:10:42.571Z,12.86
2022-09-20T09:11:48.161Z,12.90
2022-09-20T09:12:52.311Z,12.93
2022-09-20T09:14:02.840Z,12.96
2022-09-20T09:15:21.826Z,13.01
2022-09-20T09:16:35.330Z,13.03
2022-09-20T09:17:40.339Z,13.07
2022-09-20T09:18:45.861Z,13.09
2022-09-20T09:19:52.381Z,13.07
2022-09-20T09:20:55.910Z,13.04
2022-09-20T09:22:01.765Z,12.97
2022-09-20T09:23:09.292Z,12.94
2022-09-20T09:24:18.665Z,12.90
2022-09-20T09:25:29.000Z,12.86
2022-09-20T09:26:38.393Z,12.86
2022-09-20T09:27:51.312Z,12.86
2022-09-20T09:29:16.182Z,12.90
2022-09-20T09:30:26.529Z,12.87
2022-09-20T09:31:31.377Z,12.83
2022-09-20T09:32:37.809Z,12.78
2022-09-20T09:33:45.500Z,12.75
2022-09-20T09:34:49.750Z,12.73
2022-09-20T09:35:59.384Z,12.73
2022-09-20T09:37:02.629Z,12.71
2022-09-20T09:38:06.869Z,12.71
2022-09-20T09:39:22.564Z,12.69
2022-09-20T09:40:26.972Z,12.67
2022-09-20T09:41:33.512Z,12.65
2022-09-20T09:42:36.700Z,12.64
2022-09-20T09:43:41.373Z,12.64
2022-09-20T09:44:44.888Z,12.67
2022-09-20T09:45:49.423Z,12.69
2022-09-20T09:46:54.609Z,12.73
2022-09-20T09:48:00.910Z,12.72
2022-09-20T09:49:20.428Z,12.73
2022-09-20T09:50:25.511Z,12.71
2022-09-20T09:51:30.118Z,12.68
2022-09-20T09:52:35.734Z,12.66
2022-09-20T09:53:50.592Z,12.65
2022-09-20T09:55:02.883Z,12.58
2022-09-20T09:56:28.493Z,12.51
2022-09-20T09:57:46.520Z,12.41
2022-09-20T09:59:01.555Z,12.32
2022-09-20T10:00:17.825Z,12.21
2022-09-20T10:01:33.334Z,12.12
2022-09-20T10:02:51.791Z,12.09
2022-09-20T10:03:59.555Z,12.08
2022-09-20T10:05:06.271Z,12.09
2022-09-20T10:06:20.557Z,12.09
2022-09-20T10:07:29.520Z,12.13
2022-09-20T10:08:39.412Z,12.21
2022-09-20T10:10:00.492Z,12.35
2022-09-20T10:11:11.123Z,12.51
2022-09-20T10:12:26.449Z,12.69
2022-09-20T10:13:40.311Z,12.84
2022-09-20T10:14:58.042Z,12.96
2022-09-20T10:16:07.438Z,12.98
2022-09-20T10:17:25.713Z,12.88
2022-09-20T10:18:40.039Z,12.72
2022-09-20T10:19:54.942Z,12.56
2022-09-20T10:21:08.307Z,12.37
2022-09-20T10:22:19.943Z,12.21
2022-09-20T10:24:02.073Z,12.09
2022-09-20T10:25:09.453Z,11.97
2022-09-20T10:26:24.770Z,11.92
2022-09-20T10:27:39.980Z,11.91
2022-09-20T10:28:54.491Z,11.90
2022-09-20T10:30:05.416Z,11.94
2022-09-20T10:31:14.272Z,11.99
2022-09-20T10:32:27.727Z,12.10
2022-09-20T10:33:38.351Z,12.36
2022-09-20T10:35:05.201Z,12.81
2022-09-20T10:36:17.126Z,13.34
2022-09-20T10:37:27.796Z,13.97
2022-09-20T10:38:33.963Z,14.49
2022-09-20T10:39:38.781Z,14.88
2022-09-20T10:41:13.868Z,15.16
2022-09-20T10:42:44.691Z,15.33
2022-09-20T10:44:04.283Z,15.36
2022-09-20T10:45:34.909Z,15.38
2022-09-20T10:46:53.333Z,15.43
2022-09-20T10:48:04.410Z,15.55
2022-09-20T10:49:23.914Z,15.73
2022-09-20T10:50:34.821Z,15.90
2022-09-20T10:51:45.289Z,16.05
2022-09-20T10:53:00.070Z,16.16
2022-09-20T10:54:12.000Z,16.24
2022-09-20T10:55:26.363Z,16.35
2022-09-20T10:56:34.112Z,16.53
2022-09-20T10:57:54.061Z,16.60
2022-09-20T10:59:22.672Z,16.63
2022-09-20T11:00:29.094Z,16.76
2022-09-20T11:01:37.308Z,16.88
2022-09-20T11:02:47.894Z,16.89
2022-09-20T11:04:08.609Z,16.97
2022-09-20T11:05:30.019Z,17.04
2022-09-20T11:06:44.522Z,17.16
2022-09-20T11:07:56.529Z,17.16
2022-09-20T11:09:01.860Z,17.14
2022-09-20T11:10:12.673Z,17.13
2022-09-20T11:11:20.912Z,17.07
2022-09-20T11:12:27.837Z,17.02
2022-09-20T11:13:35.586Z,16.96
2022-09-20T11:14:43.444Z,17.06
2022-09-20T11:15:50.688Z,17.27
2022-09-20T11:16:59.828Z,17.47
2022-09-20T11:18:08.256Z,17.44
2022-09-20T11:19:23.690Z,17.21
2022-09-20T11:20:30.786Z,16.81
2022-09-20T11:21:38.590Z,16.27
2022-09-20T11:22:45.240Z,15.68
2022-09-20T11:23:53.529Z,15.09
2022-09-20T11:25:01.061Z,14.54
2022-09-20T11:26:10.534Z,14.08
2022-09-20T11:27:18.673Z,13.73
2022-09-20T11:28:26.531Z,13.42
2022-09-20T11:29:36.188Z,13.15
2022-09-20T11:30:52.123Z,12.90
2022-09-20T11:31:59.398Z,12.69
2022-09-20T11:33:06.967Z,12.50
2022-09-20T11:34:16.033Z,12.41
2022-09-20T11:35:29.931Z,12.32
2022-09-20T11:36:38.627Z,12.25
2022-09-20T11:37:46.379Z,12.20
2022-09-20T11:38:53.511Z,12.17
2022-09-20T11:40:23.488Z,12.21
2022-09-20T11:41:35.351Z,12.40
2022-09-20T11:42:40.992Z,12.74
2022-09-20T11:43:46.202Z,13.11
2022-09-20T11:44:51.280Z,13.53
2022-09-20T11:45:57.433Z,13.96
2022-09-20T11:47:11.780Z,14.43
2022-09-20T11:48:18.376Z,14.88
2022-09-20T11:49:25.480Z,15.35
2022-09-20T11:51:02.371Z,15.94
2022-09-20T11:52:28.907Z,16.41
2022-09-20T11:53:44.744Z,16.73
2022-09-20T11:55:06.187Z,17.11
2022-09-20T11:56:16.392Z,17.48
2022-09-20T11:57:19.454Z,17.82
2022-09-20T11:58:23.618Z,18.13
2022-09-20T11:59:30.528Z,18.35
2022-09-20T12:00:38.816Z,18.45
2022-09-20T12:01:43.556Z,18.44
2022-09-20T12:02:50.299Z,18.41
2022-09-20T12:04:14.266Z,18.45
2022-09-20T12:05:38.326Z,18.52
2022-09-20T12:06:43.081Z,18.55
2022-09-20T12:07:47.378Z,18.61
2022-09-20T12:08:52.906Z,18.81
2022-09-20T12:09:57.509Z,19.09
2022-09-20T12:11:04.823Z,19.35
2022-09-20T12:12:29.229Z,19.64
2022-09-20T12:13:36.851Z,19.81
2022-09-20T12:14:39.979Z,20.04
2022-09-20T12:15:44.396Z,20.22
2022-09-20T12:16:49.784Z,20.43
2022-09-20T12:18:24.325Z,20.81
2022-09-20T12:19:39.801Z,21.26
2022-09-20T12:21:15.919Z,21.64
2022-09-20T12:22:31.523Z,21.98
2022-09-20T12:24:10.449Z,22.43
2022-09-20T12:25:36.930Z,22.82
2022-09-20T12:26:48.211Z,22.84
2022-09-20T12:27:58.442Z,22.86
2022-09-20T12:29:02.762Z,22.65
2022-09-20T12:30:17.695Z,22.29
2022-09-20T12:31:40.103Z,21.73
2022-09-20T12:32:56.562Z,21.17
2022-09-20T12:34:02.120Z,20.76
2022-09-20T12:36:01.528Z,20.22
2022-09-20T12:37:23.321Z,19.61
2022-09-20T12:38:33.691Z,19.22
2022-09-20T12:39:39.326Z,18.88
2022-09-20T12:41:03.941Z,18.36
2022-09-20T12:42:28.401Z,17.83
2022-09-20T12:43:32.850Z,17.46
2022-09-20T12:44:38.647Z,17.18
2022-09-20T12:45:41.723Z,16.82
2022-09-20T12:46:53.445Z,16.45
2022-09-20T12:47:58.558Z,16.15
2022-09-20T12:49:42.072Z,15.85
2022-09-20T12:51:16.632Z,15.38
2022-09-20T12:52:48.109Z,15.13
2022-09-20T12:54:08.952Z,15.05
2022-09-20T12:55:13.222Z,15.11
2022-09-20T12:56:21.551Z,15.21
2022-09-20T12:57:32.704Z,15.27
2022-09-20T12:58:45.393Z,15.34
2022-09-20T12:59:57.879Z,15.43
2022-09-20T13:01:31.034Z,15.48
2022-09-20T13:02:58.002Z,15.48
2022-09-20T13:04:40.580Z,15.44
2022-09-20T13:05:46.409Z,15.39
2022-09-20T13:07:29.296Z,15.33
2022-09-20T13:08:34.440Z,15.28
2022-09-20T13:09:40.298Z,15.26
2022-09-20T13:10:51.411Z,15.23
2022-09-20T13:11:57.350Z,15.28
2022-09-20T13:13:19.197Z,15.38
2022-09-20T13:14:26.473Z,15.49
2022-09-20T13:15:30.233Z,15.53
2022-09-20T13:16:41.338Z,15.68
2022-09-20T13:17:44.880Z,16.09
2022-09-20T13:18:50.023Z,16.70
2022-09-20T13:19:55.332Z,17.34
2022-09-20T13:21:02.890Z,18.02
2022-09-20T13:22:10.332Z,18.65
2022-09-20T13:23:20.753Z,19.25
2022-09-20T13:24:27.353Z,19.77
2022-09-20T13:25:39.907Z,20.40
2022-09-20T13:26:47.663Z,20.88
2022-09-20T13:27:59.931Z,21.25
2022-09-20T13:29:05.004Z,21.43
2022-09-20T13:30:17.756Z,21.20
2022-09-20T13:31:29.686Z,20.86
2022-09-20T13:32:34.858Z,20.55
2022-09-20T13:33:40.719Z,20.51
2022-09-20T13:34:45.828Z,20.48
2022-09-20T13:35:51.560Z,20.44
2022-09-20T13:36:59.635Z,20.63
2022-09-20T13:38:07.132Z,20.89
2022-09-20T13:39:11.241Z,21.21
2022-09-20T13:40:19.408Z,21.46
2022-09-20T13:41:25.795Z,21.48
2022-09-20T13:42:31.778Z,21.30
2022-09-20T13:43:38.402Z,21.05
2022-09-20T13:44:44.276Z,20.73
2022-09-20T13:45:48.385Z,20.32
2022-09-20T13:46:52.795Z,19.97
2022-09-20T13:48:00.150Z,19.70
2022-09-20T13:49:21.040Z,19.43
2022-09-20T13:50:30.440Z,19.38
2022-09-20T13:51:35.092Z,19.57
2022-09-20T13:52:46.604Z,19.75
2022-09-20T13:53:49.854Z,19.80
2022-09-20T13:54:55.567Z,19.68
2022-09-20T13:56:00.493Z,19.51
2022-09-20T13:57:20.456Z,19.40
2022-09-20T13:58:27.773Z,19.21
2022-09-20T13:59:34.204Z,19.06
2022-09-20T14:00:39.402Z,18.98
2022-09-20T14:01:45.215Z,19.00
2022-09-20T14:02:50.823Z,19.01
2022-09-20T14:03:54.788Z,19.17
2022-09-20T14:05:01.638Z,19.22
2022-09-20T14:06:12.674Z,19.11
2022-09-20T14:07:16.883Z,19.09
2022-09-20T14:08:24.777Z,18.99
2022-09-20T14:09:31.194Z,18.90
2022-09-20T14:10:37.298Z,18.74
2022-09-20T14:11:42.031Z,18.55
2022-09-20T14:12:47.901Z,18.28
2022-09-20T14:13:54.399Z,17.93
2022-09-20T14:14:57.961Z,17.53
2022-09-20T14:16:02.472Z,17.20
2022-09-20T14:17:09.080Z,16.81
2022-09-20T14:18:16.781Z,16.47
2022-09-20T14:19:21.903Z,16.20
2022-09-20T14:20:27.082Z,16.01
2022-09-20T14:21:34.633Z,15.87
2022-09-20T14:22:38.796Z,15.71
2022-09-20T14:23:51.428Z,15.57
2022-09-20T14:25:01.634Z,15.45
2022-09-20T14:26:18.121Z,15.36
2022-09-20T14:27:23.434Z,15.25
2022-09-20T14:28:29.015Z,15.16
2022-09-20T14:29:41.429Z,15.08
2022-09-20T14:30:46.952Z,15.03
2022-09-20T14:31:53.387Z,14.99
2022-09-20T14:32:58.419Z,14.94
2022-09-20T14:34:03.742Z,14.91
2022-09-20T14:35:14.241Z,14.85
2022-09-20T14:36:20.652Z,14.80
2022-09-20T14:37:27.411Z,14.81
2022-09-20T14:38:33.300Z,14.78
2022-09-20T14:39:39.215Z,14.76
2022-09-20T14:40:47.438Z,14.75
2022-09-20T14:41:51.298Z,14.73
2022-09-20T14:42:57.681Z,14.72
2022-09-20T14:44:32.703Z,14.72
2022-09-20T14:46:21.352Z,14.73
2022-09-20T14:47:28.798Z,14.82
2022-09-20T14:48:54.001Z,14.88
2022-09-20T14:49:59.629Z,14.89
2022-09-20T14:51:25.600Z,14.89
2022-09-20T14:52:43.991Z,14.87
2022-09-20T14:53:49.835Z,14.85
2022-09-20T14:54:59.873Z,14.79
2022-09-20T14:56:11.693Z,14.73
2022-09-20T14:57:15.563Z,14.69
2022-09-20T14:58:20.177Z,14.65
2022-09-20T14:59:27.521Z,14.61
2022-09-20T15:00:32.396Z,14.56
2022-09-20T15:01:37.150Z,14.52
2022-09-20T15:02:42.886Z,14.49
2022-09-20T15:03:47.224Z,14.44
2022-09-20T15:04:54.575Z,14.43
2022-09-20T15:05:59.013Z,14.42
2022-09-20T15:07:03.731Z,14.42
2022-09-20T15:08:13.601Z,14.41
2022-09-20T15:09:17.944Z,14.41
2022-09-20T15:10:23.032Z,14.41
2022-09-20T15:11:29.645Z,14.41
2022-09-20T15:12:34.306Z,14.37
2022-09-20T15:13:39.654Z,14.31
2022-09-20T15:14:44.791Z,14.27
2022-09-20T15:15:51.751Z,14.24
2022-09-20T15:16:56.274Z,14.22
2022-09-20T15:18:01.138Z,14.21
2022-09-20T15:19:06.257Z,14.13
2022-09-20T15:20:17.888Z,14.05
2022-09-20T15:21:25.006Z,14.01
2022-09-20T15:22:30.316Z,14.00
2022-09-20T15:23:33.822Z,13.97
2022-09-20T15:24:38.261Z,13.97
2022-09-20T15:25:41.463Z,13.95
2022-09-20T15:26:46.024Z,13.94
2022-09-20T15:27:52.064Z,13.97
2022-09-20T15:28:56.260Z,13.98